sensor_id;sensor_type;location;lat;lon;timestamp;P1;durP1;ratioP1;P2;durP2;ratioP2
6195;SDS011;3131;42.630;23.382;2022-12-19T00:00:42;16.37;;;7.63;;
6195;SDS011;3131;42.630;23.382;2022-12-19T00:05:51;29.27;;;13.03;;
6195;SDS011;3131;42.630;23.382;2022-12-19T00:08:20;21.60;;;10.63;;
6195;SDS011;3131;42.630;23.382;2022-12-19T00:10:59;25.50;;;11.57;;
6195;SDS011;3131;42.630;23.382;2022-12-19T00:13:30;19.10;;;9.27;;
6195;SDS011;3131;42.630;23.382;2022-12-19T00:16:02;24.13;;;8.83;;
6195;SDS011;3131;42.630;23.382;2022-12-19T00:18:33;20.93;;;10.67;;
6195;SDS011;3131;42.630;23.382;2022-12-19T00:21:03;18.30;;;8.37;;
6195;SDS011;3131;42.630;23.382;2022-12-19T00:23:34;23.10;;;11.50;;
6195;SDS011;3131;42.630;23.382;2022-12-19T00:26:08;19.50;;;9.93;;
6195;SDS011;3131;42.630;23.382;2022-12-19T00:28:38;28.60;;;12.77;;
6195;SDS011;3131;42.630;23.382;2022-12-19T00:31:08;34.40;;;13.30;;
6195;SDS011;3131;42.630;23.382;2022-12-19T00:33:40;25.00;;;12.43;;
6195;SDS011;3131;42.630;23.382;2022-12-19T00:36:11;31.03;;;14.87;;
6195;SDS011;3131;42.630;23.382;2022-12-19T00:38:43;27.57;;;12.10;;
6195;SDS011;3131;42.630;23.382;2022-12-19T00:41:13;14.40;;;8.40;;
6195;SDS011;3131;42.630;23.382;2022-12-19T00:43:44;24.97;;;11.97;;
6195;SDS011;3131;42.630;23.382;2022-12-19T00:46:13;27.77;;;14.03;;
6195;SDS011;3131;42.630;23.382;2022-12-19T00:48:43;17.87;;;8.83;;
6195;SDS011;3131;42.630;23.382;2022-12-19T00:51:13;30.00;;;12.43;;
6195;SDS011;3131;42.630;23.382;2022-12-19T00:53:45;26.07;;;13.67;;
6195;SDS011;3131;42.630;23.382;2022-12-19T00:56:16;27.97;;;13.80;;
6195;SDS011;3131;42.630;23.382;2022-12-19T00:58:47;29.77;;;12.90;;
6195;SDS011;3131;42.630;23.382;2022-12-19T01:01:18;27.33;;;12.50;;
6195;SDS011;3131;42.630;23.382;2022-12-19T01:03:51;20.17;;;10.30;;
6195;SDS011;3131;42.630;23.382;2022-12-19T01:06:20;27.30;;;12.30;;
6195;SDS011;3131;42.630;23.382;2022-12-19T01:08:49;14.70;;;9.73;;
6195;SDS011;3131;42.630;23.382;2022-12-19T01:11:19;30.83;;;13.07;;
6195;SDS011;3131;42.630;23.382;2022-12-19T01:13:50;32.97;;;15.23;;
6195;SDS011;3131;42.630;23.382;2022-12-19T01:16:19;27.83;;;12.70;;
6195;SDS011;3131;42.630;23.382;2022-12-19T01:18:49;22.73;;;10.90;;
6195;SDS011;3131;42.630;23.382;2022-12-19T01:21:18;24.77;;;11.67;;
6195;SDS011;3131;42.630;23.382;2022-12-19T01:23:48;27.80;;;14.23;;
6195;SDS011;3131;42.630;23.382;2022-12-19T01:26:18;32.77;;;14.07;;
6195;SDS011;3131;42.630;23.382;2022-12-19T01:28:47;26.43;;;12.63;;
6195;SDS011;3131;42.630;23.382;2022-12-19T01:31:17;25.80;;;12.40;;
6195;SDS011;3131;42.630;23.382;2022-12-19T01:33:49;21.13;;;10.20;;
6195;SDS011;3131;42.630;23.382;2022-12-19T01:36:18;28.93;;;13.87;;
6195;SDS011;3131;42.630;23.382;2022-12-19T01:38:48;18.73;;;9.90;;
6195;SDS011;3131;42.630;23.382;2022-12-19T01:41:17;29.20;;;12.73;;
6195;SDS011;3131;42.630;23.382;2022-12-19T01:43:54;24.70;;;11.80;;
6195;SDS011;3131;42.630;23.382;2022-12-19T01:46:25;25.00;;;12.23;;
6195;SDS011;3131;42.630;23.382;2022-12-19T01:48:57;29.00;;;13.03;;
6195;SDS011;3131;42.630;23.382;2022-12-19T01:51:29;26.97;;;12.87;;
6195;SDS011;3131;42.630;23.382;2022-12-19T01:54:09;24.87;;;12.43;;
6195;SDS011;3131;42.630;23.382;2022-12-19T01:56:41;28.03;;;15.07;;
6195;SDS011;3131;42.630;23.382;2022-12-19T01:59:24;26.47;;;13.50;;
6195;SDS011;3131;42.630;23.382;2022-12-19T02:01:56;34.63;;;14.37;;
6195;SDS011;3131;42.630;23.382;2022-12-19T02:04:27;20.27;;;9.50;;
6195;SDS011;3131;42.630;23.382;2022-12-19T02:06:58;27.40;;;12.60;;
6195;SDS011;3131;42.630;23.382;2022-12-19T02:09:29;27.70;;;13.20;;
6195;SDS011;3131;42.630;23.382;2022-12-19T02:11:59;26.37;;;11.90;;
6195;SDS011;3131;42.630;23.382;2022-12-19T02:14:30;22.67;;;11.47;;
6195;SDS011;3131;42.630;23.382;2022-12-19T02:17:01;15.07;;;8.07;;
6195;SDS011;3131;42.630;23.382;2022-12-19T02:22:50;26.87;;;13.03;;
6195;SDS011;3131;42.630;23.382;2022-12-19T02:25:32;18.03;;;8.00;;
6195;SDS011;3131;42.630;23.382;2022-12-19T02:28:13;32.50;;;13.73;;
6195;SDS011;3131;42.630;23.382;2022-12-19T02:31:03;27.33;;;14.13;;
6195;SDS011;3131;42.630;23.382;2022-12-19T02:33:37;28.90;;;14.17;;
6195;SDS011;3131;42.630;23.382;2022-12-19T02:36:11;31.10;;;14.60;;
6195;SDS011;3131;42.630;23.382;2022-12-19T02:38:45;24.70;;;12.10;;
6195;SDS011;3131;42.630;23.382;2022-12-19T02:41:17;13.30;;;6.33;;
6195;SDS011;3131;42.630;23.382;2022-12-19T02:43:49;34.93;;;15.37;;
6195;SDS011;3131;42.630;23.382;2022-12-19T02:46:21;28.87;;;14.07;;
6195;SDS011;3131;42.630;23.382;2022-12-19T02:48:53;30.23;;;13.77;;
6195;SDS011;3131;42.630;23.382;2022-12-19T02:51:23;32.30;;;14.43;;
6195;SDS011;3131;42.630;23.382;2022-12-19T02:53:52;26.30;;;13.40;;
6195;SDS011;3131;42.630;23.382;2022-12-19T02:56:26;28.90;;;13.37;;
6195;SDS011;3131;42.630;23.382;2022-12-19T02:59:07;31.70;;;14.30;;
6195;SDS011;3131;42.630;23.382;2022-12-19T03:01:49;24.33;;;11.40;;
6195;SDS011;3131;42.630;23.382;2022-12-19T03:04:25;34.63;;;14.93;;
6195;SDS011;3131;42.630;23.382;2022-12-19T03:07:00;28.47;;;12.70;;
6195;SDS011;3131;42.630;23.382;2022-12-19T03:09:34;29.73;;;14.37;;
6195;SDS011;3131;42.630;23.382;2022-12-19T03:12:06;30.33;;;12.83;;
6195;SDS011;3131;42.630;23.382;2022-12-19T03:14:38;28.77;;;14.23;;
6195;SDS011;3131;42.630;23.382;2022-12-19T03:17:08;28.17;;;14.43;;
6195;SDS011;3131;42.630;23.382;2022-12-19T03:19:38;29.83;;;13.63;;
6195;SDS011;3131;42.630;23.382;2022-12-19T03:22:08;33.00;;;14.77;;
6195;SDS011;3131;42.630;23.382;2022-12-19T03:24:38;31.63;;;14.13;;
6195;SDS011;3131;42.630;23.382;2022-12-19T03:27:08;28.23;;;14.70;;
6195;SDS011;3131;42.630;23.382;2022-12-19T03:29:50;25.93;;;13.13;;
6195;SDS011;3131;42.630;23.382;2022-12-19T03:32:22;30.43;;;13.80;;
6195;SDS011;3131;42.630;23.382;2022-12-19T03:34:54;37.40;;;15.07;;
6195;SDS011;3131;42.630;23.382;2022-12-19T03:37:27;28.97;;;13.93;;
6195;SDS011;3131;42.630;23.382;2022-12-19T03:39:59;27.60;;;14.10;;
6195;SDS011;3131;42.630;23.382;2022-12-19T03:42:32;31.70;;;14.23;;
6195;SDS011;3131;42.630;23.382;2022-12-19T03:45:22;31.57;;;14.63;;
6195;SDS011;3131;42.630;23.382;2022-12-19T03:47:55;25.87;;;11.83;;
6195;SDS011;3131;42.630;23.382;2022-12-19T03:50:27;37.10;;;13.47;;
6195;SDS011;3131;42.630;23.382;2022-12-19T03:53:00;30.90;;;13.53;;
6195;SDS011;3131;42.630;23.382;2022-12-19T03:55:32;31.50;;;15.10;;
6195;SDS011;3131;42.630;23.382;2022-12-19T03:58:05;18.27;;;9.17;;
6195;SDS011;3131;42.630;23.382;2022-12-19T04:00:36;33.90;;;13.37;;
6195;SDS011;3131;42.630;23.382;2022-12-19T04:03:08;24.70;;;13.23;;
6195;SDS011;3131;42.630;23.382;2022-12-19T04:05:38;27.20;;;13.30;;
6195;SDS011;3131;42.630;23.382;2022-12-19T04:08:10;27.37;;;13.13;;
6195;SDS011;3131;42.630;23.382;2022-12-19T04:10:42;25.00;;;12.83;;
6195;SDS011;3131;42.630;23.382;2022-12-19T04:13:15;35.70;;;15.30;;
6195;SDS011;3131;42.630;23.382;2022-12-19T04:15:48;33.80;;;14.77;;
6195;SDS011;3131;42.630;23.382;2022-12-19T04:18:19;20.40;;;9.13;;
6195;SDS011;3131;42.630;23.382;2022-12-19T04:20:49;30.83;;;13.60;;
6195;SDS011;3131;42.630;23.382;2022-12-19T04:23:22;27.03;;;12.73;;
6195;SDS011;3131;42.630;23.382;2022-12-19T04:25:54;26.27;;;12.00;;
6195;SDS011;3131;42.630;23.382;2022-12-19T04:28:29;29.20;;;13.47;;
6195;SDS011;3131;42.630;23.382;2022-12-19T04:30:59;26.13;;;12.60;;
6195;SDS011;3131;42.630;23.382;2022-12-19T04:33:29;33.07;;;14.37;;
6195;SDS011;3131;42.630;23.382;2022-12-19T04:35:59;28.27;;;12.97;;
6195;SDS011;3131;42.630;23.382;2022-12-19T04:38:28;27.37;;;14.63;;
6195;SDS011;3131;42.630;23.382;2022-12-19T04:40:58;30.77;;;13.70;;
6195;SDS011;3131;42.630;23.382;2022-12-19T04:43:28;30.50;;;14.23;;
6195;SDS011;3131;42.630;23.382;2022-12-19T04:45:57;34.73;;;14.57;;
6195;SDS011;3131;42.630;23.382;2022-12-19T04:48:26;30.90;;;14.67;;
6195;SDS011;3131;42.630;23.382;2022-12-19T04:50:56;30.73;;;15.07;;
6195;SDS011;3131;42.630;23.382;2022-12-19T04:53:25;32.53;;;14.53;;
6195;SDS011;3131;42.630;23.382;2022-12-19T04:55:59;26.50;;;13.13;;
6195;SDS011;3131;42.630;23.382;2022-12-19T04:58:28;32.03;;;14.87;;
6195;SDS011;3131;42.630;23.382;2022-12-19T05:01:00;35.13;;;16.67;;
6195;SDS011;3131;42.630;23.382;2022-12-19T05:03:29;34.60;;;14.00;;
6195;SDS011;3131;42.630;23.382;2022-12-19T05:06:03;28.13;;;10.80;;
6195;SDS011;3131;42.630;23.382;2022-12-19T05:08:34;30.30;;;13.70;;
6195;SDS011;3131;42.630;23.382;2022-12-19T05:11:05;36.63;;;14.63;;
6195;SDS011;3131;42.630;23.382;2022-12-19T05:13:35;31.53;;;14.93;;
6195;SDS011;3131;42.630;23.382;2022-12-19T05:16:06;26.93;;;13.57;;
6195;SDS011;3131;42.630;23.382;2022-12-19T05:18:46;31.23;;;13.67;;
6195;SDS011;3131;42.630;23.382;2022-12-19T05:21:16;31.60;;;14.67;;
6195;SDS011;3131;42.630;23.382;2022-12-19T05:23:46;32.53;;;15.87;;
6195;SDS011;3131;42.630;23.382;2022-12-19T05:26:16;32.67;;;14.87;;
6195;SDS011;3131;42.630;23.382;2022-12-19T05:28:46;37.13;;;15.70;;
6195;SDS011;3131;42.630;23.382;2022-12-19T05:31:16;30.23;;;13.60;;
6195;SDS011;3131;42.630;23.382;2022-12-19T05:33:47;34.33;;;15.33;;
6195;SDS011;3131;42.630;23.382;2022-12-19T05:36:16;29.47;;;14.13;;
6195;SDS011;3131;42.630;23.382;2022-12-19T05:38:46;27.70;;;14.00;;
6195;SDS011;3131;42.630;23.382;2022-12-19T05:41:16;29.60;;;14.07;;
6195;SDS011;3131;42.630;23.382;2022-12-19T05:43:49;33.30;;;15.83;;
6195;SDS011;3131;42.630;23.382;2022-12-19T05:46:21;39.07;;;14.90;;
6195;SDS011;3131;42.630;23.382;2022-12-19T05:48:52;30.20;;;14.10;;
6195;SDS011;3131;42.630;23.382;2022-12-19T05:51:22;36.07;;;14.73;;
6195;SDS011;3131;42.630;23.382;2022-12-19T05:53:51;29.50;;;14.43;;
6195;SDS011;3131;42.630;23.382;2022-12-19T05:56:21;43.50;;;15.53;;
6195;SDS011;3131;42.630;23.382;2022-12-19T05:58:50;35.23;;;14.70;;
6195;SDS011;3131;42.630;23.382;2022-12-19T06:01:37;33.17;;;14.47;;
6195;SDS011;3131;42.630;23.382;2022-12-19T06:04:06;35.60;;;14.77;;
6195;SDS011;3131;42.630;23.382;2022-12-19T06:06:51;32.73;;;14.77;;
6195;SDS011;3131;42.630;23.382;2022-12-19T06:09:21;39.20;;;15.23;;
6195;SDS011;3131;42.630;23.382;2022-12-19T06:11:51;39.73;;;13.73;;
6195;SDS011;3131;42.630;23.382;2022-12-19T06:14:31;36.17;;;14.17;;
6195;SDS011;3131;42.630;23.382;2022-12-19T06:17:01;32.87;;;14.63;;
6195;SDS011;3131;42.630;23.382;2022-12-19T06:19:31;39.23;;;16.57;;
6195;SDS011;3131;42.630;23.382;2022-12-19T06:22:11;39.07;;;15.07;;
6195;SDS011;3131;42.630;23.382;2022-12-19T06:24:41;33.60;;;15.63;;
6195;SDS011;3131;42.630;23.382;2022-12-19T06:27:21;31.00;;;13.37;;
6195;SDS011;3131;42.630;23.382;2022-12-19T06:29:50;34.37;;;15.43;;
6195;SDS011;3131;42.630;23.382;2022-12-19T06:32:35;34.43;;;15.47;;
6195;SDS011;3131;42.630;23.382;2022-12-19T06:35:05;43.33;;;15.10;;
6195;SDS011;3131;42.630;23.382;2022-12-19T06:37:44;39.03;;;15.00;;
6195;SDS011;3131;42.630;23.382;2022-12-19T06:40:16;38.63;;;16.20;;
6195;SDS011;3131;42.630;23.382;2022-12-19T06:42:56;41.87;;;16.33;;
6195;SDS011;3131;42.630;23.382;2022-12-19T06:45:25;45.13;;;15.53;;
6195;SDS011;3131;42.630;23.382;2022-12-19T06:47:55;33.07;;;15.27;;
6195;SDS011;3131;42.630;23.382;2022-12-19T06:50:36;45.00;;;15.87;;
6195;SDS011;3131;42.630;23.382;2022-12-19T06:53:06;30.87;;;15.57;;
6195;SDS011;3131;42.630;23.382;2022-12-19T06:55:46;34.87;;;16.70;;
6195;SDS011;3131;42.630;23.382;2022-12-19T06:58:17;41.30;;;15.03;;
6195;SDS011;3131;42.630;23.382;2022-12-19T07:00:57;37.83;;;15.60;;
6195;SDS011;3131;42.630;23.382;2022-12-19T07:03:28;37.13;;;15.83;;
6195;SDS011;3131;42.630;23.382;2022-12-19T07:06:09;47.17;;;16.40;;
6195;SDS011;3131;42.630;23.382;2022-12-19T07:08:38;39.90;;;15.77;;
6195;SDS011;3131;42.630;23.382;2022-12-19T07:11:08;42.47;;;16.03;;
6195;SDS011;3131;42.630;23.382;2022-12-19T07:13:38;50.90;;;16.13;;
6195;SDS011;3131;42.630;23.382;2022-12-19T07:16:08;37.67;;;16.17;;
6195;SDS011;3131;42.630;23.382;2022-12-19T07:18:37;46.07;;;16.70;;
6195;SDS011;3131;42.630;23.382;2022-12-19T07:21:08;45.30;;;17.40;;
6195;SDS011;3131;42.630;23.382;2022-12-19T07:23:38;45.53;;;17.63;;
6195;SDS011;3131;42.630;23.382;2022-12-19T07:26:09;44.43;;;18.20;;
6195;SDS011;3131;42.630;23.382;2022-12-19T07:28:39;45.47;;;19.67;;
6195;SDS011;3131;42.630;23.382;2022-12-19T07:31:09;41.97;;;18.87;;
6195;SDS011;3131;42.630;23.382;2022-12-19T07:33:39;39.50;;;18.57;;
6195;SDS011;3131;42.630;23.382;2022-12-19T07:36:11;51.03;;;20.47;;
6195;SDS011;3131;42.630;23.382;2022-12-19T07:38:41;45.30;;;18.20;;
6195;SDS011;3131;42.630;23.382;2022-12-19T07:41:10;38.70;;;17.97;;
6195;SDS011;3131;42.630;23.382;2022-12-19T07:43:40;41.60;;;18.70;;
6195;SDS011;3131;42.630;23.382;2022-12-19T07:46:10;39.43;;;19.40;;
6195;SDS011;3131;42.630;23.382;2022-12-19T07:48:40;43.53;;;19.33;;
6195;SDS011;3131;42.630;23.382;2022-12-19T07:51:09;50.80;;;20.33;;
6195;SDS011;3131;42.630;23.382;2022-12-19T07:53:39;41.73;;;19.57;;
6195;SDS011;3131;42.630;23.382;2022-12-19T07:56:08;45.60;;;20.33;;
6195;SDS011;3131;42.630;23.382;2022-12-19T07:58:37;43.33;;;18.47;;
6195;SDS011;3131;42.630;23.382;2022-12-19T08:01:07;55.03;;;18.97;;
6195;SDS011;3131;42.630;23.382;2022-12-19T08:03:37;40.13;;;19.87;;
6195;SDS011;3131;42.630;23.382;2022-12-19T08:06:07;54.30;;;19.77;;
6195;SDS011;3131;42.630;23.382;2022-12-19T08:08:36;48.53;;;20.43;;
6195;SDS011;3131;42.630;23.382;2022-12-19T08:11:07;46.63;;;20.90;;
6195;SDS011;3131;42.630;23.382;2022-12-19T08:13:38;44.07;;;19.47;;
6195;SDS011;3131;42.630;23.382;2022-12-19T08:16:07;43.00;;;18.40;;
6195;SDS011;3131;42.630;23.382;2022-12-19T08:18:37;41.30;;;19.27;;
6195;SDS011;3131;42.630;23.382;2022-12-19T08:21:07;50.87;;;21.97;;
6195;SDS011;3131;42.630;23.382;2022-12-19T08:23:36;45.23;;;19.70;;
6195;SDS011;3131;42.630;23.382;2022-12-19T08:26:06;45.80;;;19.63;;
6195;SDS011;3131;42.630;23.382;2022-12-19T08:28:37;47.80;;;20.70;;
6195;SDS011;3131;42.630;23.382;2022-12-19T08:31:09;44.30;;;19.63;;
6195;SDS011;3131;42.630;23.382;2022-12-19T08:33:39;42.27;;;18.70;;
6195;SDS011;3131;42.630;23.382;2022-12-19T08:36:10;46.57;;;19.67;;
6195;SDS011;3131;42.630;23.382;2022-12-19T08:38:41;40.27;;;18.70;;
6195;SDS011;3131;42.630;23.382;2022-12-19T08:41:11;45.07;;;19.97;;
6195;SDS011;3131;42.630;23.382;2022-12-19T08:43:41;45.47;;;20.73;;
6195;SDS011;3131;42.630;23.382;2022-12-19T08:46:13;45.77;;;20.57;;
6195;SDS011;3131;42.630;23.382;2022-12-19T08:48:43;43.00;;;20.13;;
6195;SDS011;3131;42.630;23.382;2022-12-19T08:51:14;48.93;;;19.10;;
6195;SDS011;3131;42.630;23.382;2022-12-19T08:53:44;50.70;;;21.27;;
6195;SDS011;3131;42.630;23.382;2022-12-19T08:56:15;49.63;;;21.27;;
6195;SDS011;3131;42.630;23.382;2022-12-19T08:58:46;44.23;;;22.00;;
6195;SDS011;3131;42.630;23.382;2022-12-19T09:01:18;51.80;;;22.47;;
6195;SDS011;3131;42.630;23.382;2022-12-19T09:03:49;42.13;;;20.27;;
6195;SDS011;3131;42.630;23.382;2022-12-19T09:06:18;50.07;;;21.57;;
6195;SDS011;3131;42.630;23.382;2022-12-19T09:08:48;44.50;;;21.83;;
6195;SDS011;3131;42.630;23.382;2022-12-19T09:11:18;46.77;;;20.00;;
6195;SDS011;3131;42.630;23.382;2022-12-19T09:13:59;50.43;;;20.87;;
6195;SDS011;3131;42.630;23.382;2022-12-19T09:16:30;47.27;;;21.30;;
6195;SDS011;3131;42.630;23.382;2022-12-19T09:18:59;47.30;;;19.87;;
6195;SDS011;3131;42.630;23.382;2022-12-19T09:21:46;63.03;;;21.00;;
6195;SDS011;3131;42.630;23.382;2022-12-19T09:24:15;65.00;;;24.17;;
6195;SDS011;3131;42.630;23.382;2022-12-19T09:26:56;51.13;;;20.40;;
6195;SDS011;3131;42.630;23.382;2022-12-19T09:29:26;43.07;;;19.43;;
6195;SDS011;3131;42.630;23.382;2022-12-19T09:32:12;39.77;;;18.63;;
6195;SDS011;3131;42.630;23.382;2022-12-19T09:34:41;41.03;;;18.87;;
6195;SDS011;3131;42.630;23.382;2022-12-19T09:37:11;48.40;;;19.17;;
6195;SDS011;3131;42.630;23.382;2022-12-19T09:39:55;43.70;;;18.33;;
6195;SDS011;3131;42.630;23.382;2022-12-19T09:42:39;34.40;;;16.77;;
6195;SDS011;3131;42.630;23.382;2022-12-19T09:45:30;45.73;;;21.67;;
6195;SDS011;3131;42.630;23.382;2022-12-19T09:48:08;42.70;;;20.23;;
6195;SDS011;3131;42.630;23.382;2022-12-19T09:50:50;49.73;;;21.03;;
6195;SDS011;3131;42.630;23.382;2022-12-19T09:53:23;54.93;;;20.47;;
6195;SDS011;3131;42.630;23.382;2022-12-19T09:56:08;51.33;;;22.10;;
6195;SDS011;3131;42.630;23.382;2022-12-19T09:58:40;46.13;;;19.87;;
6195;SDS011;3131;42.630;23.382;2022-12-19T10:01:14;53.80;;;20.50;;
6195;SDS011;3131;42.630;23.382;2022-12-19T10:03:46;50.83;;;21.30;;
6195;SDS011;3131;42.630;23.382;2022-12-19T10:06:19;40.93;;;20.37;;
6195;SDS011;3131;42.630;23.382;2022-12-19T10:08:50;46.03;;;20.30;;
6195;SDS011;3131;42.630;23.382;2022-12-19T10:11:24;41.67;;;18.30;;
6195;SDS011;3131;42.630;23.382;2022-12-19T10:14:11;43.10;;;18.87;;
6195;SDS011;3131;42.630;23.382;2022-12-19T10:16:47;41.10;;;18.33;;
6195;SDS011;3131;42.630;23.382;2022-12-19T10:19:29;38.20;;;17.63;;
6195;SDS011;3131;42.630;23.382;2022-12-19T10:22:02;51.50;;;17.17;;
6195;SDS011;3131;42.630;23.382;2022-12-19T10:24:51;42.13;;;17.87;;
6195;SDS011;3131;42.630;23.382;2022-12-19T10:27:26;43.07;;;18.40;;
6195;SDS011;3131;42.630;23.382;2022-12-19T10:30:12;34.90;;;16.43;;
6195;SDS011;3131;42.630;23.382;2022-12-19T10:32:46;37.87;;;16.53;;
6195;SDS011;3131;42.630;23.382;2022-12-19T10:35:35;38.53;;;16.40;;
6195;SDS011;3131;42.630;23.382;2022-12-19T10:38:11;50.47;;;17.97;;
6195;SDS011;3131;42.630;23.382;2022-12-19T10:41:01;37.70;;;15.77;;
6195;SDS011;3131;42.630;23.382;2022-12-19T10:43:34;34.07;;;16.57;;
6195;SDS011;3131;42.630;23.382;2022-12-19T10:46:16;35.20;;;17.70;;
6195;SDS011;3131;42.630;23.382;2022-12-19T10:48:47;37.77;;;16.43;;
6195;SDS011;3131;42.630;23.382;2022-12-19T10:51:28;38.57;;;17.20;;
6195;SDS011;3131;42.630;23.382;2022-12-19T10:53:59;38.77;;;16.67;;
6195;SDS011;3131;42.630;23.382;2022-12-19T10:56:30;39.10;;;17.83;;
6195;SDS011;3131;42.630;23.382;2022-12-19T10:59:00;36.43;;;16.97;;
6195;SDS011;3131;42.630;23.382;2022-12-19T11:01:30;39.47;;;16.93;;
6195;SDS011;3131;42.630;23.382;2022-12-19T11:04:13;35.50;;;16.23;;
6195;SDS011;3131;42.630;23.382;2022-12-19T11:06:49;36.00;;;16.80;;
6195;SDS011;3131;42.630;23.382;2022-12-19T11:09:24;38.50;;;15.87;;
6195;SDS011;3131;42.630;23.382;2022-12-19T11:11:57;33.00;;;16.50;;
6195;SDS011;3131;42.630;23.382;2022-12-19T11:14:39;29.10;;;14.33;;
6195;SDS011;3131;42.630;23.382;2022-12-19T11:17:23;29.27;;;13.77;;
6195;SDS011;3131;42.630;23.382;2022-12-19T11:20:00;27.33;;;12.13;;
6195;SDS011;3131;42.630;23.382;2022-12-19T11:22:55;41.40;;;13.90;;
6195;SDS011;3131;42.630;23.382;2022-12-19T11:25:32;26.77;;;14.37;;
6195;SDS011;3131;42.630;23.382;2022-12-19T11:28:03;29.30;;;13.87;;
6195;SDS011;3131;42.630;23.382;2022-12-19T11:30:34;26.17;;;12.73;;
6195;SDS011;3131;42.630;23.382;2022-12-19T11:33:10;36.43;;;15.30;;
6195;SDS011;3131;42.630;23.382;2022-12-19T11:35:47;27.07;;;12.83;;
6195;SDS011;3131;42.630;23.382;2022-12-19T11:38:19;30.27;;;12.17;;
6195;SDS011;3131;42.630;23.382;2022-12-19T11:40:53;28.47;;;13.10;;
6195;SDS011;3131;42.630;23.382;2022-12-19T11:43:26;33.43;;;14.90;;
6195;SDS011;3131;42.630;23.382;2022-12-19T11:45:59;25.50;;;12.93;;
6195;SDS011;3131;42.630;23.382;2022-12-19T11:48:35;23.67;;;12.70;;
6195;SDS011;3131;42.630;23.382;2022-12-19T11:51:10;25.07;;;12.57;;
6195;SDS011;3131;42.630;23.382;2022-12-19T11:53:45;25.70;;;12.90;;
6195;SDS011;3131;42.630;23.382;2022-12-19T11:56:19;31.10;;;12.47;;
6195;SDS011;3131;42.630;23.382;2022-12-19T11:58:52;24.50;;;12.43;;
6195;SDS011;3131;42.630;23.382;2022-12-19T12:01:30;23.67;;;11.63;;
6195;SDS011;3131;42.630;23.382;2022-12-19T12:04:21;23.53;;;12.63;;
6195;SDS011;3131;42.630;23.382;2022-12-19T12:07:24;24.90;;;12.93;;
6195;SDS011;3131;42.630;23.382;2022-12-19T12:09:58;26.43;;;12.60;;
6195;SDS011;3131;42.630;23.382;2022-12-19T12:12:30;30.03;;;12.50;;
6195;SDS011;3131;42.630;23.382;2022-12-19T12:18:15;27.03;;;12.83;;
6195;SDS011;3131;42.630;23.382;2022-12-19T12:20:51;26.27;;;12.10;;
6195;SDS011;3131;42.630;23.382;2022-12-19T12:23:23;29.37;;;12.23;;
6195;SDS011;3131;42.630;23.382;2022-12-19T12:25:58;24.23;;;12.97;;
6195;SDS011;3131;42.630;23.382;2022-12-19T12:28:47;26.93;;;14.07;;
6195;SDS011;3131;42.630;23.382;2022-12-19T12:34:42;20.33;;;10.93;;
6195;SDS011;3131;42.630;23.382;2022-12-19T12:37:23;17.53;;;9.30;;
6195;SDS011;3131;42.630;23.382;2022-12-19T12:40:27;18.77;;;9.97;;
6195;SDS011;3131;42.630;23.382;2022-12-19T12:43:04;20.70;;;10.10;;
6195;SDS011;3131;42.630;23.382;2022-12-19T12:45:36;19.50;;;9.07;;
6195;SDS011;3131;42.630;23.382;2022-12-19T12:48:18;17.80;;;9.27;;
6195;SDS011;3131;42.630;23.382;2022-12-19T12:53:31;24.23;;;10.77;;
6195;SDS011;3131;42.630;23.382;2022-12-19T12:56:05;19.07;;;10.07;;
6195;SDS011;3131;42.630;23.382;2022-12-19T12:59:06;21.03;;;10.00;;
6195;SDS011;3131;42.630;23.382;2022-12-19T13:01:51;19.90;;;10.67;;
6195;SDS011;3131;42.630;23.382;2022-12-19T13:04:40;18.63;;;9.60;;
6195;SDS011;3131;42.630;23.382;2022-12-19T13:07:13;19.43;;;9.23;;
6195;SDS011;3131;42.630;23.382;2022-12-19T13:10:14;25.43;;;10.67;;
6195;SDS011;3131;42.630;23.382;2022-12-19T13:12:54;18.53;;;9.93;;
6195;SDS011;3131;42.630;23.382;2022-12-19T13:15:37;18.90;;;9.63;;
6195;SDS011;3131;42.630;23.382;2022-12-19T13:21:15;26.43;;;11.80;;
6195;SDS011;3131;42.630;23.382;2022-12-19T13:23:46;21.83;;;11.17;;
6195;SDS011;3131;42.630;23.382;2022-12-19T13:26:20;21.33;;;9.83;;
6195;SDS011;3131;42.630;23.382;2022-12-19T13:28:52;20.50;;;11.30;;
6195;SDS011;3131;42.630;23.382;2022-12-19T13:31:23;22.23;;;10.27;;
6195;SDS011;3131;42.630;23.382;2022-12-19T13:34:16;26.27;;;11.23;;
6195;SDS011;3131;42.630;23.382;2022-12-19T13:36:47;25.63;;;10.47;;
6195;SDS011;3131;42.630;23.382;2022-12-19T13:39:30;27.43;;;11.33;;
6195;SDS011;3131;42.630;23.382;2022-12-19T13:42:06;27.27;;;12.10;;
6195;SDS011;3131;42.630;23.382;2022-12-19T13:44:50;22.40;;;10.90;;
6195;SDS011;3131;42.630;23.382;2022-12-19T13:47:21;22.43;;;11.90;;
6195;SDS011;3131;42.630;23.382;2022-12-19T13:49:51;23.97;;;11.60;;
6195;SDS011;3131;42.630;23.382;2022-12-19T13:52:20;24.77;;;11.07;;
6195;SDS011;3131;42.630;23.382;2022-12-19T13:54:50;25.47;;;13.17;;
6195;SDS011;3131;42.630;23.382;2022-12-19T13:57:22;25.03;;;12.20;;
6195;SDS011;3131;42.630;23.382;2022-12-19T13:59:54;35.37;;;11.70;;
6195;SDS011;3131;42.630;23.382;2022-12-19T14:02:27;28.50;;;11.90;;
6195;SDS011;3131;42.630;23.382;2022-12-19T14:04:59;23.23;;;13.33;;
6195;SDS011;3131;42.630;23.382;2022-12-19T14:07:31;29.77;;;13.53;;
6195;SDS011;3131;42.630;23.382;2022-12-19T14:10:05;33.93;;;13.97;;
6195;SDS011;3131;42.630;23.382;2022-12-19T14:12:41;25.23;;;12.03;;
6195;SDS011;3131;42.630;23.382;2022-12-19T14:15:31;20.13;;;12.20;;
6195;SDS011;3131;42.630;23.382;2022-12-19T14:18:08;27.70;;;11.57;;
6195;SDS011;3131;42.630;23.382;2022-12-19T14:20:43;23.07;;;11.87;;
6195;SDS011;3131;42.630;23.382;2022-12-19T14:23:13;25.33;;;12.03;;
6195;SDS011;3131;42.630;23.382;2022-12-19T14:25:44;28.57;;;13.37;;
6195;SDS011;3131;42.630;23.382;2022-12-19T14:28:16;28.47;;;12.93;;
6195;SDS011;3131;42.630;23.382;2022-12-19T14:30:47;23.77;;;11.57;;
6195;SDS011;3131;42.630;23.382;2022-12-19T14:33:19;27.83;;;14.07;;
6195;SDS011;3131;42.630;23.382;2022-12-19T14:35:58;22.17;;;12.10;;
6195;SDS011;3131;42.630;23.382;2022-12-19T14:38:29;28.27;;;13.90;;
6195;SDS011;3131;42.630;23.382;2022-12-19T14:41:00;21.90;;;11.83;;
6195;SDS011;3131;42.630;23.382;2022-12-19T14:43:30;25.07;;;12.50;;
6195;SDS011;3131;42.630;23.382;2022-12-19T14:46:13;21.10;;;12.57;;
6195;SDS011;3131;42.630;23.382;2022-12-19T14:49:19;26.47;;;12.53;;
6195;SDS011;3131;42.630;23.382;2022-12-19T14:52:02;30.07;;;12.10;;
6195;SDS011;3131;42.630;23.382;2022-12-19T14:54:33;21.17;;;10.30;;
6195;SDS011;3131;42.630;23.382;2022-12-19T14:57:03;22.43;;;9.63;;
6195;SDS011;3131;42.630;23.382;2022-12-19T14:59:33;16.37;;;8.80;;
6195;SDS011;3131;42.630;23.382;2022-12-19T15:02:11;20.83;;;10.23;;
6195;SDS011;3131;42.630;23.382;2022-12-19T15:04:44;17.60;;;8.37;;
6195;SDS011;3131;42.630;23.382;2022-12-19T15:07:16;14.53;;;4.80;;
6195;SDS011;3131;42.630;23.382;2022-12-19T15:09:52;11.33;;;6.37;;
6195;SDS011;3131;42.630;23.382;2022-12-19T15:12:47;14.37;;;7.23;;
6195;SDS011;3131;42.630;23.382;2022-12-19T15:15:37;20.90;;;10.80;;
6195;SDS011;3131;42.630;23.382;2022-12-19T15:18:24;19.57;;;8.60;;
6195;SDS011;3131;42.630;23.382;2022-12-19T15:20:55;16.93;;;8.70;;
6195;SDS011;3131;42.630;23.382;2022-12-19T15:23:27;17.00;;;8.47;;
6195;SDS011;3131;42.630;23.382;2022-12-19T15:26:00;14.23;;;8.40;;
6195;SDS011;3131;42.630;23.382;2022-12-19T15:28:33;14.00;;;7.33;;
6195;SDS011;3131;42.630;23.382;2022-12-19T15:31:21;22.40;;;10.47;;
6195;SDS011;3131;42.630;23.382;2022-12-19T15:33:57;21.30;;;9.23;;